Time;durP1;ratioP1;P1;durP2;ratioP2;P2;SDS_P1;SDS_P2;PMS_P1;PMS_P2;Temp;Humidity;BMP_temperature;BMP_pressure;BME280_temperature;BME280_humidity;BME280_pressure;Samples;Min_cycle;Max_cycle;Signal;HPM_P1;HPM_P2
2022/04/12 00:01:34;;;;;;;;;;;;;;;;;;2214051;59;1102;-72
2022/04/12 00:04:10;;;;;;;;;;;;;;;;;;2213829;59;1101;-72
2022/04/12 00:06:43;;;;;;;;;;;;;;;;;;2212306;59;2000;-72
2022/04/12 00:09:17;;;;;;;;;;;;;;;;;;2214454;59;1105;-72
2022/04/12 00:11:50;;;;;;;;;;;;;;;;;;2213877;59;1238;-72
2022/04/12 00:14:23;;;;;;;;;;;;;;;;;;2213520;59;1694;-72
2022/04/12 00:19:45;;;;;;;;;;;;;;;;;;2214856;59;1759;-72
2022/04/12 00:22:18;;;;;;;;;;;;;;;;;;2215523;59;1246;-72
2022/04/12 00:24:52;;;;;;;;;;;;;;;;;;2212861;59;1544;-72
2022/04/12 00:27:25;;;;;;;;;;;;;;;;;;2213933;59;1223;-72
2022/04/12 00:29:58;;;;;;;;;;;;;;;;;;2214301;59;1370;-73
2022/04/12 00:32:32;;;;;;;;;;;;;;;;;;2213591;59;1172;-72
2022/04/12 00:35:08;;;;;;;;;;;;;;;;;;2214670;59;1366;-72
2022/04/12 00:37:42;;;;;;;;;;;;;;;;;;2213342;59;1185;-72
2022/04/12 00:40:17;;;;;;;;;;;;;;;;;;2214316;59;1443;-72
2022/04/12 00:42:51;;;;;;;;;;;;;;;;;;2214124;59;1256;-72
2022/04/12 00:45:24;;;;;;;;;;;;;;;;;;2211598;59;1945;-72
2022/04/12 00:47:57;;;;;;;;;;;;;;;;;;2214614;59;1288;-72
2022/04/12 00:50:33;;;;;;;;;;;;;;;;;;2213892;59;1415;-72
2022/04/12 00:53:08;;;;;;;;;;;;;;;;;;2209421;59;1570;-72
2022/04/12 00:55:41;;;;;;;;;;;;;;;;;;2213735;59;1525;-72
2022/04/12 00:58:15;;;;;;;;;;;;;;;;;;2212709;59;1774;-72
2022/04/12 01:00:48;;;;;;;;;;;;;;;;;;2214227;59;1208;-71
2022/04/12 01:03:22;;;;;;;;;;;;;;;;;;2213847;59;1272;-72
2022/04/12 01:05:58;;;;;;;;;;;;;;;;;;2213916;59;1925;-72
2022/04/12 01:08:31;;;;;;;;;;;;;;;;;;2213158;59;1720;-72
2022/04/12 01:11:07;;;;;;;;;;;;;;;;;;2213690;59;1857;-72
2022/04/12 01:13:40;;;;;;;;;;;;;;;;;;2213870;59;1333;-72
2022/04/12 01:16:13;;;;;;;;;;;;;;;;;;2213841;59;1274;-72
2022/04/12 01:18:46;;;;;;;;;;;;;;;;;;2210865;59;1832;-72
2022/04/12 01:21:22;;;;;;;;;;;;;;;;;;2214252;59;1269;-72
2022/04/12 01:24:04;;;;;;;;;;;;;;;;;;2214615;59;1286;-72
2022/04/12 01:26:37;;;;;;;;;;;;;;;;;;2213856;59;1928;-72
2022/04/12 01:29:10;;;;;;;;;;;;;;;;;;2214969;59;1492;-72
2022/04/12 01:31:43;;;;;;;;;;;;;;;;;;2213649;59;1089;-72
2022/04/12 01:34:17;;;;;;;;;;;;;;;;;;2213418;59;1514;-72
2022/04/12 01:36:50;;;;;;;;;;;;;;;;;;2214080;59;1218;-72
2022/04/12 01:39:26;;;;;;;;;;;;;;;;;;2214148;59;1699;-72
2022/04/12 01:41:59;;;;;;;;;;;;;;;;;;2214761;59;1248;-72
2022/04/12 01:44:32;;;;;;;;;;;;;;;;;;2214253;59;1254;-72
2022/04/12 01:47:06;;;;;;;;;;;;;;;;;;2213446;59;1978;-72
2022/04/12 01:49:39;;;;;;;;;;;;;;;;;;2214248;59;1527;-72
2022/04/12 01:52:15;;;;;;;;;;;;;;;;;;2215010;59;1260;-72
2022/04/12 01:54:51;;;;;;;;;;;;;;;;;;2214510;59;1257;-72
2022/04/12 01:57:24;;;;;;;;;;;;;;;;;;2213956;59;2104;-72
2022/04/12 01:59:57;;;;;;;;;;;;;;;;;;2214029;59;1355;-71
2022/04/12 02:02:30;;;;;;;;;;;;;;;;;;2214285;59;1219;-71
2022/04/12 02:05:04;;;;;;;;;;;;;;;;;;2212997;59;1866;-72
2022/04/12 02:07:37;;;;;;;;;;;;;;;;;;2214410;59;1985;-72
2022/04/12 02:10:13;;;;;;;;;;;;;;;;;;2211002;59;1525;-72
2022/04/12 02:12:47;;;;;;;;;;;;;;;;;;2213095;59;1232;-71
2022/04/12 02:15:20;;;;;;;;;;;;;;;;;;2214540;59;1327;-72
2022/04/12 02:17:53;;;;;;;;;;;;;;;;;;2214803;59;1177;-72
2022/04/12 02:20:27;;;;;;;;;;;;;;;;;;2213386;59;1749;-72
2022/04/12 02:23:00;;;;;;;;;;;;;;;;;;2215199;59;1204;-72
2022/04/12 02:25:36;;;;;;;;;;;;;;;;;;2211174;59;1795;-72
2022/04/12 02:28:09;;;;;;;;;;;;;;;;;;2214861;59;1151;-72
2022/04/12 02:30:43;;;;;;;;;;;;;;;;;;2214610;59;1440;-72
2022/04/12 02:33:16;;;;;;;;;;;;;;;;;;2214152;59;1224;-72
2022/04/12 02:35:50;;;;;;;;;;;;;;;;;;2213751;59;1194;-72
2022/04/12 02:38:23;;;;;;;;;;;;;;;;;;2214531;59;1262;-72
2022/04/12 02:40:59;;;;;;;;;;;;;;;;;;2214864;59;1343;-72
2022/04/12 02:43:32;;;;;;;;;;;;;;;;;;2213966;59;1372;-72
2022/04/12 02:46:05;;;;;;;;;;;;;;;;;;2213577;59;1972;-72
2022/04/12 02:48:39;;;;;;;;;;;;;;;;;;2214529;59;1514;-72
2022/04/12 02:51:12;;;;;;;;;;;;;;;;;;2213773;67;1239;-72
2022/04/12 02:53:45;;;;;;;;;;;;;;;;;;2214843;67;1127;-72
2022/04/12 02:56:21;;;;;;;;;;;;;;;;;;2214880;59;1289;-72
2022/04/12 02:58:55;;;;;;;;;;;;;;;;;;2214415;59;2317;-72
2022/04/12 03:01:28;;;;;;;;;;;;;;;;;;2213928;59;1220;-72
2022/04/12 03:04:01;;;;;;;;;;;;;;;;;;2214168;59;1609;-72
2022/04/12 03:06:34;;;;;;;;;;;;;;;;;;2213741;59;1936;-72
2022/04/12 03:09:07;;;;;;;;;;;;;;;;;;2214179;59;1122;-72
2022/04/12 03:11:43;;;;;;;;;;;;;;;;;;2213448;59;1221;-71
2022/04/12 03:14:16;;;;;;;;;;;;;;;;;;2213868;59;1529;-72
2022/04/12 03:16:50;;;;;;;;;;;;;;;;;;2210837;59;1514;-72
2022/04/12 03:19:23;;;;;;;;;;;;;;;;;;2214486;59;1868;-72
2022/04/12 03:21:56;;;;;;;;;;;;;;;;;;2213427;59;1262;-72
2022/04/12 03:24:30;;;;;;;;;;;;;;;;;;2214790;59;1159;-72
2022/04/12 03:27:07;;;;;;;;;;;;;;;;;;2214125;59;1904;-72
2022/04/12 03:29:40;;;;;;;;;;;;;;;;;;2214485;59;1223;-72
2022/04/12 03:32:13;;;;;;;;;;;;;;;;;;2213126;59;1635;-72
2022/04/12 03:34:46;;;;;;;;;;;;;;;;;;2213428;59;2210;-72
2022/04/12 03:37:20;;;;;;;;;;;;;;;;;;2215791;59;1343;-72
2022/04/12 03:39:53;;;;;;;;;;;;;;;;;;2215296;59;1193;-72
2022/04/12 03:42:29;;;;;;;;;;;;;;;;;;2213595;59;1293;-72
2022/04/12 03:45:02;;;;;;;;;;;;;;;;;;2214287;59;1774;-72
2022/04/12 03:47:35;;;;;;;;;;;;;;;;;;2215199;59;1919;-72
2022/04/12 03:50:09;;;;;;;;;;;;;;;;;;2215616;59;1372;-72
2022/04/12 03:52:43;;;;;;;;;;;;;;;;;;2214728;59;1411;-72
2022/04/12 03:55:30;;;;;;;;;;;;;;;;;;2215273;59;1449;-72
2022/04/12 03:58:07;;;;;;;;;;;;;;;;;;2211883;59;1377;-71
2022/04/12 04:00:40;;;;;;;;;;;;;;;;;;2214442;59;1292;-72
2022/04/12 04:03:13;;;;;;;;;;;;;;;;;;2213732;59;1196;-72
2022/04/12 04:05:47;;;;;;;;;;;;;;;;;;2214746;59;1777;-72
2022/04/12 04:08:20;;;;;;;;;;;;;;;;;;2214527;59;1996;-72
2022/04/12 04:10:54;;;;;;;;;;;;;;;;;;2214969;59;1924;-71
2022/04/12 04:13:36;;;;;;;;;;;;;;;;;;2214618;59;1687;-71
2022/04/12 04:16:09;;;;;;;;;;;;;;;;;;2214356;59;1166;-72
2022/04/12 04:18:42;;;;;;;;;;;;;;;;;;2212085;59;1570;-72
2022/04/12 04:21:15;;;;;;;;;;;;;;;;;;2215057;59;1268;-72
2022/04/12 04:23:49;;;;;;;;;;;;;;;;;;2215466;59;1239;-72
2022/04/12 04:26:22;;;;;;;;;;;;;;;;;;2212915;59;1926;-72
2022/04/12 04:28:58;;;;;;;;;;;;;;;;;;2215041;59;1270;-72
2022/04/12 04:31:31;;;;;;;;;;;;;;;;;;2215100;59;1466;-72
2022/04/12 04:34:04;;;;;;;;;;;;;;;;;;2214980;59;1569;-72
2022/04/12 04:36:38;;;;;;;;;;;;;;;;;;2214996;59;1264;-72
2022/04/12 04:39:11;;;;;;;;;;;;;;;;;;2215061;59;1231;-72
2022/04/12 04:41:44;;;;;;;;;;;;;;;;;;2210942;59;1305;-72
2022/04/12 04:44:20;;;;;;;;;;;;;;;;;;2213731;59;1110;-72
2022/04/12 04:46:53;;;;;;;;;;;;;;;;;;2214067;59;1933;-72
2022/04/12 04:49:27;;;;;;;;;;;;;;;;;;2214842;59;1373;-72
2022/04/12 04:52:00;;;;;;;;;;;;;;;;;;2213915;59;1206;-72
2022/04/12 04:54:34;;;;;;;;;;;;;;;;;;2214041;59;1290;-72
2022/04/12 04:57:07;;;;;;;;;;;;;;;;;;2215863;59;1276;-72
2022/04/12 04:59:43;;;;;;;;;;;;;;;;;;2215630;59;1338;-72
2022/04/12 05:02:16;;;;;;;;;;;;;;;;;;2215293;59;2098;-72
2022/04/12 05:04:49;;;;;;;;;;;;;;;;;;2213824;59;1838;-72
2022/04/12 05:07:26;;;;;;;;;;;;;;;;;;2215600;59;1936;-72
2022/04/12 05:10:00;;;;;;;;;;;;;;;;;;2215984;59;1110;-72
2022/04/12 05:12:33;;;;;;;;;;;;;;;;;;2215462;59;1235;-72
2022/04/12 05:15:10;;;;;;;;;;;;;;;;;;2214606;59;1162;-72
2022/04/12 05:17:43;;;;;;;;;;;;;;;;;;2215597;59;1292;-72
2022/04/12 05:20:16;;;;;;;;;;;;;;;;;;2216172;59;1285;-72
2022/04/12 05:22:50;;;;;;;;;;;;;;;;;;2215984;59;1400;-72
2022/04/12 05:25:23;;;;;;;;;;;;;;;;;;2215916;59;1838;-72
2022/04/12 05:27:56;;;;;;;;;;;;;;;;;;2215330;59;1933;-72
2022/04/12 05:30:33;;;;;;;;;;;;;;;;;;2216025;59;1381;-74
2022/04/12 05:33:06;;;;;;;;;;;;;;;;;;2215684;59;1679;-72
2022/04/12 05:35:39;;;;;;;;;;;;;;;;;;2214735;59;1261;-72
2022/04/12 05:38:12;;;;;;;;;;;;;;;;;;2210578;59;1129;-72
2022/04/12 05:40:45;;;;;;;;;;;;;;;;;;2215744;59;1155;-72
2022/04/12 05:43:18;;;;;;;;;;;;;;;;;;2215964;59;1114;-72
2022/04/12 05:45:54;;;;;;;;;;;;;;;;;;2215246;59;1517;-72
2022/04/12 05:48:28;;;;;;;;;;;;;;;;;;2214298;59;1940;-73
2022/04/12 05:51:01;;;;;;;;;;;;;;;;;;2215931;59;1386;-72
2022/04/12 05:53:35;;;;;;;;;;;;;;;;;;2214824;59;1223;-72
2022/04/12 05:56:08;;;;;;;;;;;;;;;;;;2215592;59;1423;-72
2022/04/12 05:58:42;;;;;;;;;;;;;;;;;;2214952;59;1236;-72
2022/04/12 06:01:18;;;;;;;;;;;;;;;;;;2215889;59;1370;-72
2022/04/12 06:03:51;;;;;;;;;;;;;;;;;;2216485;59;1240;-71
2022/04/12 06:06:24;;;;;;;;;;;;;;;;;;2215362;59;1930;-72
2022/04/12 06:08:58;;;;;;;;;;;;;;;;;;2213071;59;1940;-72
2022/04/12 06:11:31;;;;;;;;;;;;;;;;;;2213959;59;1615;-72
2022/04/12 06:14:04;;;;;;;;;;;;;;;;;;2214757;59;1480;-72
2022/04/12 06:16:40;;;;;;;;;;;;;;;;;;2210402;59;1629;-72
2022/04/12 06:19:13;;;;;;;;;;;;;;;;;;2215377;59;2025;-72
2022/04/12 06:21:46;;;;;;;;;;;;;;;;;;2215173;59;1081;-72
2022/04/12 06:24:20;;;;;;;;;;;;;;;;;;2214842;59;1688;-72
2022/04/12 06:26:53;;;;;;;;;;;;;;;;;;2212563;59;1896;-72
2022/04/12 06:29:27;;;;;;;;;;;;;;;;;;2213318;59;1984;-72
2022/04/12 06:32:03;;;;;;;;;;;;;;;;;;2215051;59;1049;-72
2022/04/12 06:34:36;;;;;;;;;;;;;;;;;;2213476;59;1425;-72
2022/04/12 06:37:09;;;;;;;;;;;;;;;;;;2215217;59;1689;-72
2022/04/12 06:39:42;;;;;;;;;;;;;;;;;;2214597;59;1163;-72
2022/04/12 06:42:15;;;;;;;;;;;;;;;;;;2213694;59;1190;-72
2022/04/12 06:44:49;;;;;;;;;;;;;;;;;;2214794;59;1687;-70
2022/04/12 06:47:24;;;;;;;;;;;;;;;;;;2214532;59;1988;-72
2022/04/12 06:49:58;;;;;;;;;;;;;;;;;;2215796;67;1219;-72
2022/04/12 06:52:31;;;;;;;;;;;;;;;;;;2215063;59;1616;-72
2022/04/12 06:55:05;;;;;;;;;;;;;;;;;;2215043;67;1193;-72
2022/04/12 06:57:38;;;;;;;;;;;;;;;;;;2215762;67;1061;-72
2022/04/12 07:00:12;;;;;;;;;;;;;;;;;;2213950;67;1207;-72
2022/04/12 07:02:49;;;;;;;;;;;;;;;;;;2210967;59;1644;-72
2022/04/12 07:05:22;;;;;;;;;;;;;;;;;;2213570;59;1908;-72
2022/04/12 07:07:57;;;;;;;;;;;;;;;;;;2211036;59;1946;-72
2022/04/12 07:10:30;;;;;;;;;;;;;;;;;;2213749;60;1057;-72
2022/04/12 07:13:03;;;;;;;;;;;;;;;;;;2214110;59;2233;-72
2022/04/12 07:15:36;;;;;;;;;;;;;;;;;;2213060;59;3134;-72
2022/04/12 07:18:12;;;;;;;;;;;;;;;;;;2213708;59;1604;-73
2022/04/12 07:20:45;;;;;;;;;;;;;;;;;;2213680;59;1676;-73
2022/04/12 07:23:18;;;;;;;;;;;;;;;;;;2211614;59;1684;-73
2022/04/12 07:25:52;;;;;;;;;;;;;;;;;;2213603;59;1745;-72
2022/04/12 07:28:25;;;;;;;;;;;;;;;;;;2214495;59;1991;-72
2022/04/12 07:30:58;;;;;;;;;;;;;;;;;;2215550;59;1491;-72
2022/04/12 07:33:34;;;;;;;;;;;;;;;;;;2213742;59;2259;-72
2022/04/12 07:36:07;;;;;;;;;;;;;;;;;;2214256;59;2129;-71
2022/04/12 07:38:40;;;;;;;;;;;;;;;;;;2214026;59;1744;-72
2022/04/12 07:41:14;;;;;;;;;;;;;;;;;;2215157;59;1437;-73
2022/04/12 07:43:49;;;;;;;;;;;;;;;;;;2213114;59;1859;-72
2022/04/12 07:46:22;;;;;;;;;;;;;;;;;;2213143;59;1871;-72
2022/04/12 07:48:58;;;;;;;;;;;;;;;;;;2213186;59;1919;-72
2022/04/12 07:51:31;;;;;;;;;;;;;;;;;;2213649;59;1747;-72
2022/04/12 07:54:06;;;;;;;;;;;;;;;;;;2214093;59;1457;-72
2022/04/12 07:56:39;;;;;;;;;;;;;;;;;;2213952;59;1833;-72
2022/04/12 07:59:12;;;;;;;;;;;;;;;;;;2214282;59;1502;-73
2022/04/12 08:01:46;;;;;;;;;;;;;;;;;;2213313;59;1185;-73
2022/04/12 08:04:21;;;;;;;;;;;;;;;;;;2214222;59;1976;-73
2022/04/12 08:06:55;;;;;;;;;;;;;;;;;;2212698;59;1924;-73
2022/04/12 08:09:28;;;;;;;;;;;;;;;;;;2214860;59;1987;-73
2022/04/12 08:12:01;;;;;;;;;;;;;;;;;;2213538;59;1771;-73
2022/04/12 08:14:35;;;;;;;;;;;;;;;;;;2213440;59;2481;-72
2022/04/12 08:17:08;;;;;;;;;;;;;;;;;;2212318;59;2143;-73
2022/04/12 08:19:44;;;;;;;;;;;;;;;;;;2214677;59;1183;-72
2022/04/12 08:22:17;;;;;;;;;;;;;;;;;;2211743;59;1467;-73
2022/04/12 08:24:50;;;;;;;;;;;;;;;;;;2213696;59;2358;-73
2022/04/12 08:27:23;;;;;;;;;;;;;;;;;;2212152;59;1559;-73
2022/04/12 08:30:02;;;;;;;;;;;;;;;;;;2212626;59;1931;-73
2022/04/12 08:32:35;;;;;;;;;;;;;;;;;;2213007;59;2046;-72
2022/04/12 08:35:12;;;;;;;;;;;;;;;;;;2212503;59;1793;-72
2022/04/12 08:37:46;;;;;;;;;;;;;;;;;;2212424;59;2527;-72
2022/04/12 08:40:20;;;;;;;;;;;;;;;;;;2213855;59;2576;-73
2022/04/12 08:42:55;;;;;;;;;;;;;;;;;;2212838;59;2617;-73
2022/04/12 08:45:28;;;;;;;;;;;;;;;;;;2210430;59;1815;-72
2022/04/12 08:48:02;;;;;;;;;;;;;;;;;;2211789;59;2004;-73
2022/04/12 08:50:39;;;;;;;;;;;;;;;;;;2213114;59;1606;-73
2022/04/12 08:53:12;;;;;;;;;;;;;;;;;;2213507;59;1292;-73
2022/04/12 08:55:45;;;;;;;;;;;;;;;;;;2214526;59;1258;-73
2022/04/12 08:58:19;;;;;;;;;;;;;;;;;;2214673;59;1312;-73
2022/04/12 09:00:52;;;;;;;;;;;;;;;;;;2214737;59;1294;-73
2022/04/12 09:03:27;;;;;;;;;;;;;;;;;;2214622;59;1371;-73
2022/04/12 09:06:02;;;;;;;;;;;;;;;;;;2214586;59;1723;-73
2022/04/12 09:08:36;;;;;;;;;;;;;;;;;;2214068;59;1936;-73
2022/04/12 09:11:09;;;;;;;;;;;;;;;;;;2213306;59;1773;-73
2022/04/12 09:13:59;;;;;;;;;;;;;;;;;;2214324;59;1713;-73
2022/04/12 09:16:33;;;;;;;;;;;;;;;;;;2214750;59;1349;-73
2022/04/12 09:19:06;;;;;;;;;;;;;;;;;;2213925;59;1201;-73
2022/04/12 09:21:47;;;;;;;;;;;;;;;;;;2213546;59;1720;-73
2022/04/12 09:24:23;;;;;;;;;;;;;;;;;;2213878;59;1747;-73
2022/04/12 09:26:57;;;;;;;;;;;;;;;;;;2214359;59;1977;-73
2022/04/12 09:29:31;;;;;;;;;;;;;;;;;;2213283;59;1978;-73
2022/04/12 09:32:04;;;;;;;;;;;;;;;;;;2215005;59;1098;-73
2022/04/12 09:34:37;;;;;;;;;;;;;;;;;;2213669;59;1640;-73
2022/04/12 09:37:24;;;;;;;;;;;;;;;;;;2214530;59;1663;-73
2022/04/12 09:40:05;;;;;;;;;;;;;;;;;;2213159;59;1315;-73
2022/04/12 09:42:39;;;;;;;;;;;;;;;;;;2214149;59;1726;-73
2022/04/12 09:45:13;;;;;;;;;;;;;;;;;;2214837;59;1790;-73
2022/04/12 09:47:47;;;;;;;;;;;;;;;;;;2214390;59;1617;-72
2022/04/12 09:50:22;;;;;;;;;;;;;;;;;;2214830;59;1921;-72
2022/04/12 09:52:58;;;;;;;;;;;;;;;;;;2215035;59;1145;-73
2022/04/12 09:55:36;;;;;;;;;;;;;;;;;;2214983;59;1276;-73
2022/04/12 09:58:10;;;;;;;;;;;;;;;;;;2215052;59;1174;-73
2022/04/12 10:00:47;;;;;;;;;;;;;;;;;;2214984;59;1199;-73
2022/04/12 10:03:22;;;;;;;;;;;;;;;;;;2215575;59;1332;-73
2022/04/12 10:05:55;;;;;;;;;;;;;;;;;;2211554;59;1704;-73
2022/04/12 10:08:33;;;;;;;;;;;;;;;;;;2213347;59;1937;-73
2022/04/12 10:11:06;;;;;;;;;;;;;;;;;;2215284;59;1179;-73
2022/04/12 10:13:40;;;;;;;;;;;;;;;;;;2214225;59;1231;-73
2022/04/12 10:16:16;;;;;;;;;;;;;;;;;;2216219;59;1259;-73
2022/04/12 10:18:50;;;;;;;;;;;;;;;;;;2215500;59;1547;-73
2022/04/12 10:21:26;;;;;;;;;;;;;;;;;;2215188;59;1441;-73
2022/04/12 10:24:03;;;;;;;;;;;;;;;;;;2212962;59;1056;-73
2022/04/12 10:26:36;;;;;;;;;;;;;;;;;;2214295;59;1949;-73
2022/04/12 10:29:09;;;;;;;;;;;;;;;;;;2212737;59;1917;-73
2022/04/12 10:31:55;;;;;;;;;;;;;;;;;;2214542;59;1705;-72
2022/04/12 10:34:28;;;;;;;;;;;;;;;;;;2213556;59;1769;-73
2022/04/12 10:37:04;;;;;;;;;;;;;;;;;;2213882;59;1587;-73
2022/04/12 10:39:47;;;;;;;;;;;;;;;;;;2214451;59;1574;-73
2022/04/12 10:42:21;;;;;;;;;;;;;;;;;;2212749;59;1699;-73
2022/04/12 10:44:56;;;;;;;;;;;;;;;;;;2211767;59;1640;-73
2022/04/12 10:47:34;;;;;;;;;;;;;;;;;;2212656;59;1686;-73
2022/04/12 10:50:08;;;;;;;;;;;;;;;;;;2213482;59;1937;-73
2022/04/12 10:52:46;;;;;;;;;;;;;;;;;;2214369;59;1188;-72
2022/04/12 10:55:23;;;;;;;;;;;;;;;;;;2213799;59;2663;-73
2022/04/12 10:58:12;;;;;;;;;;;;;;;;;;2214049;59;2538;-73
2022/04/12 11:00:47;;;;;;;;;;;;;;;;;;2214009;59;1547;-73
2022/04/12 11:03:20;;;;;;;;;;;;;;;;;;2214333;59;1218;-73
2022/04/12 11:05:57;;;;;;;;;;;;;;;;;;2211514;59;1590;-73
2022/04/12 11:08:57;;;;;;;;;;;;;;;;;;2215074;59;1291;-73
2022/04/12 11:11:39;;;;;;;;;;;;;;;;;;2210606;59;1308;-73
2022/04/12 11:14:27;;;;;;;;;;;;;;;;;;2214675;59;1782;-73
2022/04/12 11:17:02;;;;;;;;;;;;;;;;;;2213283;59;1278;-73
2022/04/12 11:19:43;;;;;;;;;;;;;;;;;;2214748;59;1113;-73
2022/04/12 11:22:17;;;;;;;;;;;;;;;;;;2214977;59;1207;-73
2022/04/12 11:25:05;;;;;;;;;;;;;;;;;;2214919;59;1842;-74
2022/04/12 11:27:41;;;;;;;;;;;;;;;;;;2213886;59;1274;-73
2022/04/12 11:30:15;;;;;;;;;;;;;;;;;;2212025;59;1996;-74
2022/04/12 11:32:50;;;;;;;;;;;;;;;;;;2211611;59;1573;-73
2022/04/12 11:35:23;;;;;;;;;;;;;;;;;;2214765;59;1303;-73
2022/04/12 11:37:56;;;;;;;;;;;;;;;;;;2214925;59;1656;-74
2022/04/12 11:40:30;;;;;;;;;;;;;;;;;;2213350;59;1231;-73
2022/04/12 11:43:10;;;;;;;;;;;;;;;;;;2213959;59;1197;-73
2022/04/12 11:45:46;;;;;;;;;;;;;;;;;;2214032;59;1703;-73
2022/04/12 11:48:19;;;;;;;;;;;;;;;;;;2214731;59;1514;-73
2022/04/12 11:50:53;;;;;;;;;;;;;;;;;;2214895;59;1939;-73
2022/04/12 11:53:27;;;;;;;;;;;;;;;;;;2214364;59;1270;-73
2022/04/12 11:56:03;;;;;;;;;;;;;;;;;;2213824;59;1643;-73
2022/04/12 11:58:39;;;;;;;;;;;;;;;;;;2213225;59;1631;-73
2022/04/12 12:01:13;;;;;;;;;;;;;;;;;;2214236;59;1434;-73
2022/04/12 12:03:47;;;;;;;;;;;;;;;;;;2213307;59;1683;-73
2022/04/12 12:06:20;;;;;;;;;;;;;;;;;;2213530;59;1684;-73
2022/04/12 12:08:53;;;;;;;;;;;;;;;;;;2214357;59;1101;-73
2022/04/12 12:11:26;;;;;;;;;;;;;;;;;;2213283;59;1991;-73
2022/04/12 12:14:02;;;;;;;;;;;;;;;;;;2214740;59;1313;-73
2022/04/12 12:16:35;;;;;;;;;;;;;;;;;;2213744;59;1516;-73
2022/04/12 12:19:11;;;;;;;;;;;;;;;;;;2213416;59;1446;-73
2022/04/12 12:21:46;;;;;;;;;;;;;;;;;;2213541;59;2505;-73
2022/04/12 12:24:19;;;;;;;;;;;;;;;;;;2213854;59;1188;-73
2022/04/12 12:26:55;;;;;;;;;;;;;;;;;;2213905;59;1841;-72
2022/04/12 12:29:31;;;;;;;;;;;;;;;;;;2214082;59;1953;-72
2022/04/12 12:32:04;;;;;;;;;;;;;;;;;;2212826;59;1271;-73
2022/04/12 12:34:38;;;;;;;;;;;;;;;;;;2213468;59;1578;-73
2022/04/12 12:37:12;;;;;;;;;;;;;;;;;;2214106;59;1532;-73
2022/04/12 12:39:46;;;;;;;;;;;;;;;;;;2213718;59;1732;-73
2022/04/12 12:42:19;;;;;;;;;;;;;;;;;;2214450;59;1200;-73
2022/04/12 12:44:55;;;;;;;;;;;;;;;;;;2214083;59;1930;-73
2022/04/12 12:47:28;;;;;;;;;;;;;;;;;;2205694;59;2133;-70
2022/04/12 12:50:04;;;;;;;;;;;;;;;;;;2199064;59;1999;-70
2022/04/12 12:52:37;;;;;;;;;;;;;;;;;;2203549;59;1360;-70
2022/04/12 12:55:11;;;;;;;;;;;;;;;;;;2205732;59;1690;-70
2022/04/12 12:57:48;;;;;;;;;;;;;;;;;;2203254;59;1758;-70
2022/04/12 13:00:28;;;;;;;;;;;;;;;;;;2202416;59;2423;-70
2022/04/12 13:03:02;;;;;;;;;;;;;;;;;;2200055;59;1187;-70
2022/04/12 13:05:35;;;;;;;;;;;;;;;;;;2204093;59;1380;-70
2022/04/12 13:08:09;;;;;;;;;;;;;;;;;;2195750;59;2410;-70
2022/04/12 13:10:42;;;;;;;;;;;;;;;;;;2202148;59;2049;-70
2022/04/12 13:13:15;;;;;;;;;;;;;;;;;;2204133;58;1286;-69
2022/04/12 13:15:51;;;;;;;;;;;;;;;;;;2206374;59;1860;-70
2022/04/12 13:18:25;;;;;;;;;;;;;;;;;;2196692;59;2873;-70
2022/04/12 13:20:59;;;;;;;;;;;;;;;;;;2202007;59;1263;-70
2022/04/12 13:23:32;;;;;;;;;;;;;;;;;;2205396;59;1167;-70
2022/04/12 13:26:05;;;;;;;;;;;;;;;;;;2205319;59;1820;-70
2022/04/12 13:28:38;;;;;;;;;;;;;;;;;;2204994;59;1272;-70
2022/04/12 13:31:17;;;;;;;;;;;;;;;;;;2202676;59;2000;-70
2022/04/12 13:33:50;;;;;;;;;;;;;;;;;;2205092;59;1320;-70
2022/04/12 13:36:23;;;;;;;;;;;;;;;;;;2206281;59;1938;-70
2022/04/12 13:38:57;;;;;;;;;;;;;;;;;;2202534;59;1745;-70
2022/04/12 13:41:30;;;;;;;;;;;;;;;;;;2202669;59;1399;-70
2022/04/12 13:44:03;;;;;;;;;;;;;;;;;;2204917;59;1164;-70
2022/04/12 13:46:39;;;;;;;;;;;;;;;;;;2204037;59;1864;-70
2022/04/12 13:49:13;;;;;;;;;;;;;;;;;;2204266;59;1346;-70
2022/04/12 13:51:46;;;;;;;;;;;;;;;;;;2202063;58;1981;-70
2022/04/12 13:54:19;;;;;;;;;;;;;;;;;;2203479;59;1143;-70
2022/04/12 13:56:52;;;;;;;;;;;;;;;;;;2208106;59;1366;-70
2022/04/12 13:59:26;;;;;;;;;;;;;;;;;;2213788;59;2494;-70
2022/04/12 14:02:02;;;;;;;;;;;;;;;;;;2200875;59;2488;-70
2022/04/12 14:04:35;;;;;;;;;;;;;;;;;;2204773;59;1132;-70
2022/04/12 14:07:08;;;;;;;;;;;;;;;;;;2202349;59;1831;-70
2022/04/12 14:09:41;;;;;;;;;;;;;;;;;;2204511;59;1934;-70
2022/04/12 14:12:14;;;;;;;;;;;;;;;;;;2205846;59;1375;-70
2022/04/12 14:14:50;;;;;;;;;;;;;;;;;;2210507;59;1459;-70
2022/04/12 14:17:25;;;;;;;;;;;;;;;;;;2213082;59;2400;-70
2022/04/12 14:19:59;;;;;;;;;;;;;;;;;;2203078;59;2319;-70
2022/04/12 14:22:32;;;;;;;;;;;;;;;;;;2202838;59;1718;-70
2022/04/12 14:25:05;;;;;;;;;;;;;;;;;;2203329;59;1321;-70
2022/04/12 14:27:38;;;;;;;;;;;;;;;;;;2202640;59;1910;-70
2022/04/12 14:30:12;;;;;;;;;;;;;;;;;;2204082;59;1949;-70
2022/04/12 14:32:48;;;;;;;;;;;;;;;;;;2203612;59;1269;-70
2022/04/12 14:35:21;;;;;;;;;;;;;;;;;;2203994;59;1151;-70
2022/04/12 14:37:54;;;;;;;;;;;;;;;;;;2200689;59;1929;-69
2022/04/12 14:40:27;;;;;;;;;;;;;;;;;;2202626;58;1816;-70
2022/04/12 14:43:01;;;;;;;;;;;;;;;;;;2203428;59;1058;-70
2022/04/12 14:45:35;;;;;;;;;;;;;;;;;;2203088;59;1282;-70
2022/04/12 14:48:12;;;;;;;;;;;;;;;;;;2201761;58;1803;-70
2022/04/12 14:50:45;;;;;;;;;;;;;;;;;;2202863;59;1939;-69
2022/04/12 14:53:21;;;;;;;;;;;;;;;;;;2201736;59;1711;-70
2022/04/12 14:55:54;;;;;;;;;;;;;;;;;;2203657;59;1227;-70
2022/04/12 14:58:31;;;;;;;;;;;;;;;;;;2204005;59;1814;-70
2022/04/12 15:01:04;;;;;;;;;;;;;;;;;;2203376;58;2538;-70
2022/04/12 15:03:40;;;;;;;;;;;;;;;;;;2201455;59;2578;-70
2022/04/12 15:06:13;;;;;;;;;;;;;;;;;;2201811;58;1907;-70
2022/04/12 15:08:47;;;;;;;;;;;;;;;;;;2201635;59;1176;-70
2022/04/12 15:11:20;;;;;;;;;;;;;;;;;;2199417;59;2043;-70
2022/04/12 15:13:53;;;;;;;;;;;;;;;;;;2201677;59;1302;-70
2022/04/12 15:16:28;;;;;;;;;;;;;;;;;;2201582;59;1396;-70
2022/04/12 15:19:04;;;;;;;;;;;;;;;;;;2202038;59;1245;-69
2022/04/12 15:21:40;;;;;;;;;;;;;;;;;;2202375;59;1675;-70
2022/04/12 15:24:13;;;;;;;;;;;;;;;;;;2205499;59;1658;-70
2022/04/12 15:26:47;;;;;;;;;;;;;;;;;;2201913;59;1958;-69
2022/04/12 15:29:20;;;;;;;;;;;;;;;;;;2202224;59;1511;-69
2022/04/12 15:31:53;;;;;;;;;;;;;;;;;;2205751;59;1975;-70
2022/04/12 15:34:29;;;;;;;;;;;;;;;;;;2207103;59;1368;-69
2022/04/12 15:37:03;;;;;;;;;;;;;;;;;;2202757;59;1858;-70
2022/04/12 15:39:37;;;;;;;;;;;;;;;;;;2204216;59;1585;-69
2022/04/12 15:42:10;;;;;;;;;;;;;;;;;;2205824;58;2109;-70
2022/04/12 15:44:43;;;;;;;;;;;;;;;;;;2203457;59;1076;-70
2022/04/12 15:47:16;;;;;;;;;;;;;;;;;;2204543;59;1564;-69
2022/04/12 15:49:52;;;;;;;;;;;;;;;;;;2202828;59;1246;-69
2022/04/12 15:52:25;;;;;;;;;;;;;;;;;;2203155;59;1993;-69
2022/04/12 15:54:59;;;;;;;;;;;;;;;;;;2205434;59;1244;-69
2022/04/12 15:57:32;;;;;;;;;;;;;;;;;;2206382;59;1600;-69
2022/04/12 16:00:05;;;;;;;;;;;;;;;;;;2199035;59;1177;-69
2022/04/12 16:02:39;;;;;;;;;;;;;;;;;;2201710;59;2586;-69
2022/04/12 16:05:15;;;;;;;;;;;;;;;;;;2202630;59;2474;-70
2022/04/12 16:07:49;;;;;;;;;;;;;;;;;;2202477;59;1765;-69
2022/04/12 16:10:23;;;;;;;;;;;;;;;;;;2202134;59;1988;-70
2022/04/12 16:12:56;;;;;;;;;;;;;;;;;;2204248;59;1233;-70
2022/04/12 16:15:30;;;;;;;;;;;;;;;;;;2204627;59;1483;-70
2022/04/12 16:18:03;;;;;;;;;;;;;;;;;;2203082;58;1178;-69
2022/04/12 16:20:39;;;;;;;;;;;;;;;;;;2200452;59;1655;-69
2022/04/12 16:23:12;;;;;;;;;;;;;;;;;;2201211;59;1735;-69
2022/04/12 16:25:46;;;;;;;;;;;;;;;;;;2203301;59;2481;-69
2022/04/12 16:28:19;;;;;;;;;;;;;;;;;;2202335;59;1633;-70
2022/04/12 16:30:53;;;;;;;;;;;;;;;;;;2200506;59;2283;-70
2022/04/12 16:33:26;;;;;;;;;;;;;;;;;;2203465;59;1192;-70
2022/04/12 16:36:03;;;;;;;;;;;;;;;;;;2199456;59;1599;-69
2022/04/12 16:38:36;;;;;;;;;;;;;;;;;;2202622;59;1712;-70
2022/04/12 16:41:09;;;;;;;;;;;;;;;;;;2202769;59;1571;-70
2022/04/12 16:43:42;;;;;;;;;;;;;;;;;;2201283;59;1688;-69
2022/04/12 16:46:16;;;;;;;;;;;;;;;;;;2200933;58;1847;-69
2022/04/12 16:48:49;;;;;;;;;;;;;;;;;;2203377;59;1770;-70
2022/04/12 16:51:25;;;;;;;;;;;;;;;;;;2203863;59;1933;-70
2022/04/12 16:53:58;;;;;;;;;;;;;;;;;;2203371;59;1250;-69
2022/04/12 16:56:31;;;;;;;;;;;;;;;;;;2202595;59;1626;-70
2022/04/12 16:59:05;;;;;;;;;;;;;;;;;;2202458;59;1618;-70
2022/04/12 17:01:38;;;;;;;;;;;;;;;;;;2204893;59;1655;-70
2022/04/12 17:04:12;;;;;;;;;;;;;;;;;;2204892;58;2515;-69
2022/04/12 17:06:47;;;;;;;;;;;;;;;;;;2203137;58;2987;-69
2022/04/12 17:09:21;;;;;;;;;;;;;;;;;;2204595;59;1208;-70
2022/04/12 17:11:54;;;;;;;;;;;;;;;;;;2202888;59;2073;-70
2022/04/12 17:14:27;;;;;;;;;;;;;;;;;;2205162;59;1578;-69
2022/04/12 17:17:01;;;;;;;;;;;;;;;;;;2203784;59;1263;-70
2022/04/12 17:19:34;;;;;;;;;;;;;;;;;;2203099;59;1703;-69
2022/04/12 17:22:10;;;;;;;;;;;;;;;;;;2202652;59;1354;-70
2022/04/12 17:24:44;;;;;;;;;;;;;;;;;;2204021;59;1867;-70
2022/04/12 17:27:17;;;;;;;;;;;;;;;;;;2198773;59;1766;-70
2022/04/12 17:29:50;;;;;;;;;;;;;;;;;;2203771;59;1348;-70
2022/04/12 17:32:23;;;;;;;;;;;;;;;;;;2204387;59;1984;-70
2022/04/12 17:34:56;;;;;;;;;;;;;;;;;;2201274;59;1434;-70
2022/04/12 17:37:33;;;;;;;;;;;;;;;;;;2203767;59;1530;-70
2022/04/12 17:40:07;;;;;;;;;;;;;;;;;;2202359;59;1655;-70
2022/04/12 17:42:40;;;;;;;;;;;;;;;;;;2202160;59;1176;-69
2022/04/12 17:45:15;;;;;;;;;;;;;;;;;;2203172;59;1644;-70
2022/04/12 17:47:48;;;;;;;;;;;;;;;;;;2204785;59;1680;-69
2022/04/12 17:50:21;;;;;;;;;;;;;;;;;;2204993;59;1269;-70
2022/04/12 17:52:57;;;;;;;;;;;;;;;;;;2207897;59;1940;-70
2022/04/12 17:55:31;;;;;;;;;;;;;;;;;;2207879;59;1261;-69